Time;durP1;ratioP1;P1;durP2;ratioP2;P2;SDS_P1;SDS_P2;PMS_P1;PMS_P2;Temp;Humidity;BMP_temperature;BMP_pressure;BME280_temperature;BME280_humidity;BME280_pressure;Samples;Min_cycle;Max_cycle;Signal;HPM_P1;HPM_P2
2023/01/06 00:02:19;;;;;;;6.93;2.70;;;;;;;;;;6053932;23;20037;-71
2023/01/06 00:04:46;;;;;;;6.18;2.50;;;;;;;;;;6060109;23;20025;-71
2023/01/06 00:07:13;;;;;;;6.75;2.83;;;;;;;;;;6084473;23;20025;-71
2023/01/06 00:09:39;;;;;;;7.22;2.40;;;;;;;;;;6060489;23;20982;-71
2023/01/06 00:12:07;;;;;;;6.18;2.47;;;;;;;;;;6074447;23;20046;-71
2023/01/06 00:14:34;;;;;;;7.07;2.80;;;;;;;;;;6056061;23;20022;-71
2023/01/06 00:17:01;;;;;;;6.28;2.25;;;;;;;;;;6069047;23;20018;-71
2023/01/06 00:19:29;;;;;;;10.10;2.40;;;;;;;;;;6069419;23;20030;-71
2023/01/06 00:21:55;;;;;;;4.35;1.90;;;;;;;;;;6036834;23;20030;-71
2023/01/06 00:24:22;;;;;;;5.80;2.38;;;;;;;;;;6053797;23;20026;-71
2023/01/06 00:26:49;;;;;;;7.47;2.92;;;;;;;;;;6063237;23;20049;-71
2023/01/06 00:29:18;;;;;;;6.57;2.30;;;;;;;;;;6035254;23;20026;-72
2023/01/06 00:31:45;;;;;;;5.82;2.05;;;;;;;;;;6038326;23;20026;-72
2023/01/06 00:34:12;;;;;;;4.80;2.00;;;;;;;;;;6048222;23;20027;-71
2023/01/06 00:36:40;;;;;;;8.32;2.50;;;;;;;;;;6065155;23;20053;-72
2023/01/06 00:39:06;;;;;;;6.40;2.17;;;;;;;;;;6079640;23;20027;-71
2023/01/06 00:44:17;;;;;;;6.05;2.22;;;;;;;;;;6103392;23;20034;-71
2023/01/06 00:46:43;;;;;;;6.50;2.20;;;;;;;;;;6078200;23;20034;-71
2023/01/06 00:49:10;;;;;;;4.50;1.90;;;;;;;;;;6082095;23;20026;-72
2023/01/06 00:51:38;;;;;;;5.85;2.00;;;;;;;;;;6031076;23;20185;-72
2023/01/06 00:54:06;;;;;;;4.70;1.95;;;;;;;;;;6048079;23;20041;-71
2023/01/06 00:56:35;;;;;;;3.92;2.05;;;;;;;;;;6109898;23;20026;-71
2023/01/06 00:59:02;;;;;;;;;;;;;;;;;;6072520;23;20034;-71
2023/01/06 01:01:28;;;;;;;6.38;2.08;;;;;;;;;;6058305;23;19949;-72
2023/01/06 01:03:55;;;;;;;6.47;2.40;;;;;;;;;;6031951;23;20034;-71
2023/01/06 01:06:21;;;;;;;6.22;2.20;;;;;;;;;;6057129;23;20033;-72
2023/01/06 01:08:48;;;;;;;5.40;2.17;;;;;;;;;;6049395;23;20101;-72
2023/01/06 01:13:57;;;;;;;6.63;2.55;;;;;;;;;;6138820;23;20033;-71
2023/01/06 01:16:23;;;;;;;4.80;2.08;;;;;;;;;;6102556;23;20017;-71
2023/01/06 01:18:50;;;;;;;5.28;2.33;;;;;;;;;;6137489;23;20048;-71
2023/01/06 01:21:17;;;;;;;4.63;2.20;;;;;;;;;;6093063;23;20033;-72
2023/01/06 01:23:46;;;;;;;5.93;2.17;;;;;;;;;;6081898;23;20104;-71
2023/01/06 01:26:13;;;;;;;5.72;2.30;;;;;;;;;;6119713;23;20028;-72
2023/01/06 01:28:41;;;;;;;4.70;2.05;;;;;;;;;;6161262;23;20028;-71
2023/01/06 01:31:07;;;;;;;7.28;2.67;;;;;;;;;;6102518;23;20048;-71
2023/01/06 01:33:34;;;;;;;7.15;2.35;;;;;;;;;;6115419;23;20045;-71
2023/01/06 01:36:05;;;;;;;7.50;1.98;;;;;;;;;;6103676;23;20017;-72
2023/01/06 01:38:31;;;;;;;3.63;1.98;;;;;;;;;;6113476;23;20032;-71
2023/01/06 01:40:58;;;;;;;4.88;2.20;;;;;;;;;;6102244;23;20031;-70
2023/01/06 01:43:25;;;;;;;5.93;2.13;;;;;;;;;;6092671;23;20017;-71
2023/01/06 01:45:55;;;;;;;7.90;2.30;;;;;;;;;;6136522;23;20029;-70
2023/01/06 01:48:25;;;;;;;9.07;2.70;;;;;;;;;;6137596;23;20033;-71
2023/01/06 01:50:55;;;;;;;6.03;1.98;;;;;;;;;;6135276;23;20032;-71
2023/01/06 01:53:23;;;;;;;4.47;1.95;;;;;;;;;;6118791;23;20033;-71
2023/01/06 01:55:50;;;;;;;6.47;2.08;;;;;;;;;;6112648;23;20053;-71
2023/01/06 01:58:19;;;;;;;5.95;2.20;;;;;;;;;;6113763;23;20049;-71
2023/01/06 02:00:45;;;;;;;;;;;;;;;;;;6091624;23;20022;-71
2023/01/06 02:03:18;;;;;;;8.27;2.35;;;;;;;;;;6109305;23;19931;-71
2023/01/06 02:05:45;;;;;;;4.70;2.10;;;;;;;;;;6111417;23;20044;-70
2023/01/06 02:08:18;;;;;;;5.88;2.30;;;;;;;;;;6108611;23;20032;-71
2023/01/06 02:10:44;;;;;;;5.03;2.10;;;;;;;;;;6111086;23;20025;-71
2023/01/06 02:13:13;;;;;;;7.00;2.20;;;;;;;;;;6048137;23;20018;-71
2023/01/06 02:15:42;;;;;;;4.70;1.95;;;;;;;;;;6091380;23;20029;-71
2023/01/06 02:18:08;;;;;;;;;;;;;;;;;;6112948;23;20032;-71
2023/01/06 02:20:51;;;;;;;6.35;2.25;;;;;;;;;;6135263;23;19972;-71
2023/01/06 02:23:35;;;;;;;3.67;1.92;;;;;;;;;;6131748;23;20052;-71
2023/01/06 02:26:23;;;;;;;4.13;1.92;;;;;;;;;;6101428;23;20121;-71
2023/01/06 02:28:59;;;;;;;4.35;1.83;;;;;;;;;;6113798;23;20048;-71
2023/01/06 02:31:47;;;;;;;4.82;1.90;;;;;;;;;;6126625;23;20033;-72
2023/01/06 02:34:22;;;;;;;5.97;2.08;;;;;;;;;;6125024;23;20149;-71
2023/01/06 02:36:54;;;;;;;7.35;2.20;;;;;;;;;;6087969;23;20061;-70
2023/01/06 02:39:28;;;;;;;5.15;2.17;;;;;;;;;;6078762;23;20022;-71
2023/01/06 02:42:01;;;;;;;5.22;1.90;;;;;;;;;;6080182;23;20029;-71
2023/01/06 02:44:29;;;;;;;4.63;1.77;;;;;;;;;;6068574;23;20045;-71
2023/01/06 02:47:04;;;;;;;4.72;2.00;;;;;;;;;;6082738;23;20026;-71
2023/01/06 02:49:40;;;;;;;5.60;2.00;;;;;;;;;;6063890;23;20022;-71
2023/01/06 02:52:09;;;;;;;3.78;1.80;;;;;;;;;;6079795;23;20039;-71
2023/01/06 02:54:38;;;;;;;5.13;1.60;;;;;;;;;;6109899;23;20029;-71
2023/01/06 02:57:11;;;;;;;8.32;2.00;;;;;;;;;;6088543;23;20021;-71
2023/01/06 02:59:40;;;;;;;3.05;1.70;;;;;;;;;;6104050;23;20049;-71
2023/01/06 03:02:06;;;;;;;;;;;;;;;;;;6039643;23;20036;-70
2023/01/06 03:04:36;;;;;;;5.00;1.60;;;;;;;;;;6081606;23;20039;-72
2023/01/06 03:07:04;;;;;;;5.18;1.92;;;;;;;;;;6096620;23;20053;-71
2023/01/06 03:09:33;;;;;;;3.50;1.60;;;;;;;;;;6112233;23;20096;-72
2023/01/06 03:12:00;;;;;;;7.35;1.33;;;;;;;;;;6124952;23;20048;-71
2023/01/06 03:14:30;;;;;;;4.47;1.42;;;;;;;;;;6114855;23;20102;-71
2023/01/06 03:16:57;;;;;;;3.92;1.65;;;;;;;;;;6134310;23;20056;-71
2023/01/06 03:19:24;;;;;;;4.18;1.50;;;;;;;;;;6121318;23;20032;-71
2023/01/06 03:21:52;;;;;;;2.70;1.40;;;;;;;;;;6093142;23;20028;-71
2023/01/06 03:24:18;;;;;;;4.15;1.50;;;;;;;;;;6124558;23;20017;-71
2023/01/06 03:26:47;;;;;;;2.75;1.20;;;;;;;;;;6103026;23;20025;-71
2023/01/06 03:29:15;;;;;;;3.75;1.42;;;;;;;;;;6117133;23;20021;-70
2023/01/06 03:31:48;;;;;;;2.88;1.20;;;;;;;;;;6045694;23;20105;-71
2023/01/06 03:34:21;;;;;;;2.75;1.45;;;;;;;;;;6124250;23;20018;-71
2023/01/06 03:36:50;;;;;;;4.20;1.42;;;;;;;;;;6126454;23;20026;-71
2023/01/06 03:39:22;;;;;;;3.17;1.30;;;;;;;;;;6123964;23;20128;-71
2023/01/06 03:44:43;;;;;;;1.88;0.90;;;;;;;;;;6113052;23;20033;-71
2023/01/06 03:47:13;;;;;;;3.20;1.30;;;;;;;;;;6114317;23;20088;-71
2023/01/06 03:49:43;;;;;;;4.50;1.85;;;;;;;;;;6104224;23;20021;-72
2023/01/06 03:52:13;;;;;;;4.53;1.50;;;;;;;;;;6094244;23;20081;-71
2023/01/06 03:54:42;;;;;;;4.63;1.30;;;;;;;;;;6114409;23;20026;-71
2023/01/06 03:57:11;;;;;;;2.67;1.08;;;;;;;;;;6121101;23;20017;-71
2023/01/06 03:59:47;;;;;;;4.45;1.80;;;;;;;;;;6128707;23;20028;-71
2023/01/06 04:02:14;;;;;;;3.72;1.33;;;;;;;;;;6084984;23;20021;-72
2023/01/06 04:04:41;;;;;;;2.45;1.23;;;;;;;;;;6071807;23;20025;-71
2023/01/06 04:07:24;;;;;;;2.35;0.98;;;;;;;;;;6001257;23;20027;-71
2023/01/06 04:09:52;;;;;;;4.65;1.17;;;;;;;;;;6016358;23;20037;-71
2023/01/06 04:14:59;;;;;;;2.10;1.10;;;;;;;;;;6090435;23;20021;-71
2023/01/06 04:17:26;;;;;;;3.35;1.35;;;;;;;;;;6136254;23;20022;-71
2023/01/06 04:19:52;;;;;;;1.95;1.00;;;;;;;;;;6112183;23;20025;-71
2023/01/06 04:22:19;;;;;;;4.72;1.23;;;;;;;;;;6112178;23;20017;-71
2023/01/06 04:24:45;;;;;;;1.05;0.88;;;;;;;;;;6116891;23;20027;-71
2023/01/06 04:27:13;;;;;;;2.72;0.98;;;;;;;;;;6118476;23;20173;-72
2023/01/06 04:29:40;;;;;;;4.43;1.20;;;;;;;;;;6136170;23;20020;-71
2023/01/06 04:32:06;;;;;;;6.10;0.95;;;;;;;;;;6080195;23;20049;-72
2023/01/06 04:34:33;;;;;;;1.58;1.00;;;;;;;;;;6127416;23;20017;-72
2023/01/06 04:36:59;;;;;;;2.78;1.23;;;;;;;;;;6113321;23;20025;-71
2023/01/06 04:39:26;;;;;;;3.08;1.00;;;;;;;;;;6086069;23;20031;-72
2023/01/06 04:41:53;;;;;;;2.20;1.02;;;;;;;;;;6075731;23;20025;-70
2023/01/06 04:44:21;;;;;;;1.83;1.10;;;;;;;;;;6106617;23;20022;-71
2023/01/06 04:46:47;;;;;;;2.40;0.93;;;;;;;;;;6123635;23;20021;-72
2023/01/06 04:49:14;;;;;;;1.88;0.90;;;;;;;;;;6137292;23;20033;-71
2023/01/06 04:51:41;;;;;;;4.60;1.10;;;;;;;;;;6101374;23;20040;-71
2023/01/06 04:54:07;;;;;;;1.77;1.08;;;;;;;;;;6091920;23;20035;-71
2023/01/06 04:56:34;;;;;;;3.20;0.90;;;;;;;;;;6103339;23;20032;-71
2023/01/06 04:59:00;;;;;;;1.73;0.90;;;;;;;;;;6115389;23;20021;-71
2023/01/06 05:01:29;;;;;;;3.28;1.10;;;;;;;;;;6081581;23;20029;-71
2023/01/06 05:03:56;;;;;;;2.03;0.90;;;;;;;;;;6146237;23;20029;-71
2023/01/06 05:06:23;;;;;;;1.70;0.80;;;;;;;;;;6103322;23;20033;-71
2023/01/06 05:08:49;;;;;;;2.67;1.00;;;;;;;;;;6102547;23;20480;-71
2023/01/06 05:11:17;;;;;;;2.00;0.82;;;;;;;;;;6047347;23;20026;-70
2023/01/06 05:13:44;;;;;;;2.07;0.90;;;;;;;;;;6070913;23;20128;-72
2023/01/06 05:16:13;;;;;;;1.42;0.80;;;;;;;;;;6059648;23;20025;-71
2023/01/06 05:18:41;;;;;;;2.53;1.00;;;;;;;;;;6109454;23;20022;-71
2023/01/06 05:21:08;;;;;;;1.85;0.85;;;;;;;;;;6053773;23;20033;-71
2023/01/06 05:23:34;;;;;;;2.80;0.82;;;;;;;;;;6056802;23;20087;-70
2023/01/06 05:26:01;;;;;;;1.33;0.70;;;;;;;;;;6098396;23;20068;-71
2023/01/06 05:28:28;;;;;;;5.03;0.80;;;;;;;;;;6051591;23;20026;-71
2023/01/06 05:30:58;;;;;;;3.25;0.95;;;;;;;;;;6062257;23;20036;-72
2023/01/06 05:33:25;;;;;;;2.78;0.95;;;;;;;;;;6041699;23;20101;-71
2023/01/06 05:35:58;;;;;;;1.92;0.80;;;;;;;;;;6055402;23;21257;-71
2023/01/06 05:38:25;;;;;;;1.95;0.80;;;;;;;;;;6056376;23;20026;-72
2023/01/06 05:40:52;;;;;;;2.80;0.80;;;;;;;;;;6035514;23;20036;-71
2023/01/06 05:43:20;;;;;;;1.83;0.80;;;;;;;;;;6063319;23;20032;-71
2023/01/06 05:45:47;;;;;;;2.03;0.90;;;;;;;;;;6076531;23;20056;-71
2023/01/06 05:48:14;;;;;;;1.80;1.00;;;;;;;;;;6069759;23;20022;-71
2023/01/06 05:50:40;;;;;;;2.72;0.75;;;;;;;;;;6031289;23;20026;-71
2023/01/06 05:53:09;;;;;;;3.95;0.90;;;;;;;;;;6055067;23;20030;-70
2023/01/06 05:55:37;;;;;;;1.55;0.85;;;;;;;;;;6021569;23;20026;-71
2023/01/06 05:58:04;;;;;;;4.28;1.00;;;;;;;;;;6076034;23;20111;-71
2023/01/06 06:00:30;;;;;;;2.67;1.15;;;;;;;;;;6058496;23;20023;-72
2023/01/06 06:03:00;;;;;;;3.22;0.90;;;;;;;;;;6053637;23;20330;-71
2023/01/06 06:05:26;;;;;;;1.45;0.80;;;;;;;;;;6079036;23;20198;-72
2023/01/06 06:07:53;;;;;;;2.03;1.08;;;;;;;;;;6053399;23;20032;-71
2023/01/06 06:10:21;;;;;;;2.60;1.05;;;;;;;;;;6077347;23;20033;-71
2023/01/06 06:12:48;;;;;;;2.53;0.90;;;;;;;;;;6067584;23;20085;-71
2023/01/06 06:15:14;;;;;;;1.80;0.90;;;;;;;;;;6080769;23;20073;-71
2023/01/06 06:17:41;;;;;;;4.53;1.02;;;;;;;;;;6105205;23;20169;-71
2023/01/06 06:20:11;;;;;;;1.30;0.95;;;;;;;;;;6111857;23;20075;-72
2023/01/06 06:22:38;;;;;;;3.80;1.13;;;;;;;;;;6071997;23;20020;-71
2023/01/06 06:25:07;;;;;;;1.98;1.00;;;;;;;;;;6113402;23;20076;-71
2023/01/06 06:27:37;;;;;;;3.03;1.00;;;;;;;;;;6101626;23;20026;-72
2023/01/06 06:30:04;;;;;;;2.13;0.98;;;;;;;;;;6096845;23;20197;-71
2023/01/06 06:32:31;;;;;;;2.67;1.10;;;;;;;;;;6069587;23;20029;-71
2023/01/06 06:34:57;;;;;;;2.15;0.93;;;;;;;;;;6124403;23;20026;-72
2023/01/06 06:37:25;;;;;;;2.33;1.00;;;;;;;;;;6098797;23;20022;-71
2023/01/06 06:39:51;;;;;;;2.15;1.10;;;;;;;;;;6091650;23;20878;-71
2023/01/06 06:42:21;;;;;;;2.83;0.98;;;;;;;;;;6064839;23;20139;-71
2023/01/06 06:44:49;;;;;;;3.00;1.20;;;;;;;;;;6137506;23;20092;-70
2023/01/06 06:47:16;;;;;;;2.17;1.00;;;;;;;;;;6085439;23;20017;-72
2023/01/06 06:49:43;;;;;;;3.28;1.10;;;;;;;;;;6088183;23;20025;-71
2023/01/06 06:52:10;;;;;;;1.35;0.98;;;;;;;;;;6064580;23;20029;-72
2023/01/06 06:54:36;;;;;;;3.38;1.10;;;;;;;;;;6126491;23;20029;-71
2023/01/06 06:57:03;;;;;;;3.03;1.27;;;;;;;;;;6110442;23;20017;-72
2023/01/06 06:59:30;;;;;;;2.05;1.05;;;;;;;;;;6143018;23;20035;-71
2023/01/06 07:01:58;;;;;;;3.08;1.13;;;;;;;;;;6064898;23;20040;-71
2023/01/06 07:04:24;;;;;;;3.00;1.30;;;;;;;;;;6107783;23;20029;-71
2023/01/06 07:06:53;;;;;;;1.10;0.95;;;;;;;;;;6117922;23;20031;-70
2023/01/06 07:09:25;;;;;;;3.55;1.10;;;;;;;;;;6135527;23;20077;-71
2023/01/06 07:11:54;;;;;;;2.03;1.15;;;;;;;;;;6075134;23;20115;-71
2023/01/06 07:14:21;;;;;;;2.30;1.30;;;;;;;;;;6091264;23;20053;-71
2023/01/06 07:16:48;;;;;;;3.38;1.45;;;;;;;;;;6110461;23;20056;-71
2023/01/06 07:19:18;;;;;;;3.05;1.40;;;;;;;;;;6108709;23;20049;-71
2023/01/06 07:21:45;;;;;;;2.67;1.20;;;;;;;;;;6056454;23;20022;-72
2023/01/06 07:24:12;;;;;;;2.85;1.20;;;;;;;;;;6104049;23;20310;-71
2023/01/06 07:26:41;;;;;;;2.50;1.40;;;;;;;;;;6098783;23;20029;-71
2023/01/06 07:29:08;;;;;;;3.67;1.38;;;;;;;;;;6107698;23;20017;-71
2023/01/06 07:31:37;;;;;;;3.03;1.48;;;;;;;;;;6079854;23;20041;-71
2023/01/06 07:34:04;;;;;;;;;;;;;;;;;;5997204;23;20030;-71
2023/01/06 07:36:32;;;;;;;4.15;1.27;;;;;;;;;;6066187;23;19924;-72
2023/01/06 07:39:01;;;;;;;3.50;1.40;;;;;;;;;;6106980;23;20032;-72
2023/01/06 07:41:28;;;;;;;3.25;1.17;;;;;;;;;;6063072;23;20030;-72
2023/01/06 07:43:55;;;;;;;2.17;1.20;;;;;;;;;;6001902;23;20029;-72
2023/01/06 07:46:21;;;;;;;2.78;1.40;;;;;;;;;;6110802;23;20045;-70
2023/01/06 07:48:48;;;;;;;2.05;1.20;;;;;;;;;;6097193;23;20076;-71
2023/01/06 07:51:17;;;;;;;1.55;1.08;;;;;;;;;;6112811;23;20029;-71
2023/01/06 07:53:57;;;;;;;3.92;1.48;;;;;;;;;;6079459;23;20083;-71
2023/01/06 07:56:24;;;;;;;2.40;1.38;;;;;;;;;;6123245;23;20025;-71
2023/01/06 07:58:53;;;;;;;4.93;1.70;;;;;;;;;;6095257;23;20032;-71
2023/01/06 08:01:20;;;;;;;5.20;1.77;;;;;;;;;;6120155;23;20235;-71
2023/01/06 08:03:46;;;;;;;3.33;1.58;;;;;;;;;;6088559;23;20033;-71
2023/01/06 08:06:13;;;;;;;4.72;1.80;;;;;;;;;;6096714;23;20032;-71
2023/01/06 08:08:41;;;;;;;3.72;1.92;;;;;;;;;;6095431;23;20070;-71
2023/01/06 08:11:11;;;;;;;4.50;1.90;;;;;;;;;;6077672;23;20037;-71
2023/01/06 08:13:45;;;;;;;4.88;1.90;;;;;;;;;;6047047;23;20025;-71
2023/01/06 08:16:16;;;;;;;2.45;1.52;;;;;;;;;;6096082;23;20035;-70
2023/01/06 08:18:44;;;;;;;;;;;;;;;;;;6122318;23;20021;-71
2023/01/06 08:21:11;;;;;;;3.22;1.60;;;;;;;;;;6099967;23;19984;-71
2023/01/06 08:23:38;;;;;;;3.50;2.00;;;;;;;;;;6058621;23;20117;-71
2023/01/06 08:26:05;;;;;;;3.00;1.88;;;;;;;;;;6103137;23;20025;-71
2023/01/06 08:28:33;;;;;;;2.83;1.65;;;;;;;;;;6101465;23;20063;-70
2023/01/06 08:31:00;;;;;;;5.18;2.00;;;;;;;;;;6093908;23;20029;-71
2023/01/06 08:33:27;;;;;;;3.58;1.60;;;;;;;;;;6125957;23;20021;-72
2023/01/06 08:35:57;;;;;;;3.40;1.90;;;;;;;;;;6104195;23;20025;-71
2023/01/06 08:38:24;;;;;;;3.53;1.90;;;;;;;;;;6096661;23;20026;-70
2023/01/06 08:40:51;;;;;;;3.53;2.00;;;;;;;;;;6095538;23;20051;-71
2023/01/06 08:43:20;;;;;;;2.33;1.52;;;;;;;;;;6059461;23;20031;-71
2023/01/06 08:45:48;;;;;;;3.28;1.80;;;;;;;;;;6096395;23;21525;-71
2023/01/06 08:48:18;;;;;;;2.50;1.60;;;;;;;;;;6087419;23;20029;-71
2023/01/06 08:50:45;;;;;;;3.67;2.00;;;;;;;;;;6093319;23;20047;-71
2023/01/06 08:53:12;;;;;;;3.80;1.90;;;;;;;;;;6057970;23;20025;-71
2023/01/06 08:55:39;;;;;;;4.75;1.65;;;;;;;;;;6097653;23;20117;-71
2023/01/06 08:58:06;;;;;;;2.03;1.48;;;;;;;;;;6092685;23;20036;-71
2023/01/06 09:00:33;;;;;;;2.95;1.70;;;;;;;;;;6083236;23;20029;-71
2023/01/06 09:03:01;;;;;;;3.65;1.70;;;;;;;;;;6086329;23;20025;-70
2023/01/06 09:05:30;;;;;;;2.45;1.65;;;;;;;;;;6129152;23;20140;-71
2023/01/06 09:07:57;;;;;;;3.90;1.48;;;;;;;;;;6136449;23;20076;-71
2023/01/06 09:10:30;;;;;;;3.00;1.70;;;;;;;;;;6132747;23;20055;-71
2023/01/06 09:12:56;;;;;;;2.58;1.40;;;;;;;;;;6101481;23;20021;-71
2023/01/06 09:15:25;;;;;;;2.35;1.38;;;;;;;;;;6107874;23;20063;-72
2023/01/06 09:17:52;;;;;;;2.05;1.33;;;;;;;;;;6098233;23;21003;-72
2023/01/06 09:20:20;;;;;;;2.47;1.45;;;;;;;;;;6106957;23;20025;-71
2023/01/06 09:22:47;;;;;;;3.75;1.50;;;;;;;;;;6066413;23;20026;-71
2023/01/06 09:25:14;;;;;;;2.42;1.40;;;;;;;;;;6029925;23;20026;-72
2023/01/06 09:27:41;;;;;;;3.63;1.30;;;;;;;;;;6007831;23;20022;-71
2023/01/06 09:30:09;;;;;;;2.58;1.40;;;;;;;;;;6010808;23;20098;-71
2023/01/06 09:32:36;;;;;;;7.53;1.70;;;;;;;;;;5993337;23;20049;-72
2023/01/06 09:35:04;;;;;;;4.13;1.63;;;;;;;;;;6009062;23;20023;-71
2023/01/06 09:37:32;;;;;;;2.53;1.15;;;;;;;;;;6061219;23;20064;-72
2023/01/06 09:40:07;;;;;;;4.18;1.50;;;;;;;;;;6132566;23;20056;-71
2023/01/06 09:42:40;;;;;;;3.83;1.50;;;;;;;;;;6075512;23;20034;-71
2023/01/06 09:45:10;;;;;;;4.45;1.20;;;;;;;;;;6017356;23;20057;-71
2023/01/06 09:47:40;;;;;;;3.85;1.23;;;;;;;;;;6106831;23;20327;-72
2023/01/06 09:50:10;;;;;;;2.97;1.10;;;;;;;;;;6098311;23;20021;-71
2023/01/06 09:52:41;;;;;;;4.18;1.27;;;;;;;;;;6079787;23;20021;-71
2023/01/06 09:55:15;;;;;;;1.95;1.25;;;;;;;;;;6068247;23;20071;-72
2023/01/06 09:57:45;;;;;;;2.20;1.20;;;;;;;;;;6065334;23;20024;-72
2023/01/06 10:00:19;;;;;;;3.45;1.30;;;;;;;;;;6111536;23;20127;-71
2023/01/06 10:02:46;;;;;;;2.05;0.98;;;;;;;;;;6077833;23;20128;-71
2023/01/06 10:05:18;;;;;;;3.20;1.10;;;;;;;;;;6137901;23;20029;-72
2023/01/06 10:07:50;;;;;;;4.15;1.13;;;;;;;;;;6056249;23;20263;-71
2023/01/06 10:10:18;;;;;;;3.28;1.10;;;;;;;;;;6106259;23;20053;-71
2023/01/06 10:12:51;;;;;;;3.42;1.27;;;;;;;;;;6078861;23;20034;-71
2023/01/06 10:15:24;;;;;;;5.80;1.30;;;;;;;;;;6093199;23;20036;-71
2023/01/06 10:18:09;;;;;;;3.65;1.17;;;;;;;;;;6123941;23;20029;-72
2023/01/06 10:20:59;;;;;;;4.90;0.93;;;;;;;;;;6106498;23;20120;-71
2023/01/06 10:26:14;;;;;;;;;;;;;;;;;;6056297;23;20025;-71
2023/01/06 10:28:44;;;;;;;4.22;1.20;;;;;;;;;;6121157;23;19921;-71
2023/01/06 10:31:12;;;;;;;5.97;0.93;;;;;;;;;;6131017;23;20025;-71
2023/01/06 10:33:43;;;;;;;4.60;1.20;;;;;;;;;;6102203;23;20027;-71
2023/01/06 10:36:12;;;;;;;7.28;1.90;;;;;;;;;;6119097;23;20084;-71
2023/01/06 11:32:29;;;;;;;3.72;0.77;;;;;;;;;;6242044;22;20031;-70
2023/01/06 11:34:57;;;;;;;3.22;0.73;;;;;;;;;;6189388;22;20053;-71
2023/01/06 11:37:31;;;;;;;5.88;0.80;;;;;;;;;;6213955;22;20020;-69
2023/01/06 11:39:57;;;;;;;4.40;0.60;;;;;;;;;;6235577;22;20015;-72
2023/01/06 11:42:27;;;;;;;9.93;0.80;;;;;;;;;;6284053;22;20021;-71
2023/01/06 11:45:01;;;;;;;2.03;0.70;;;;;;;;;;6259226;22;20023;-71
2023/01/06 11:47:31;;;;;;;4.15;0.80;;;;;;;;;;6307126;22;20026;-70
2023/01/06 11:50:00;;;;;;;4.78;0.90;;;;;;;;;;6321257;22;20048;-73
2023/01/06 11:52:30;;;;;;;3.22;0.55;;;;;;;;;;6176065;22;20028;-71
2023/01/06 11:55:02;;;;;;;5.00;1.00;;;;;;;;;;6076157;23;20026;-73
2023/01/06 11:57:40;;;;;;;4.32;0.73;;;;;;;;;;6248690;22;20675;-70
2023/01/06 12:00:25;;;;;;;3.83;0.98;;;;;;;;;;6314298;22;20102;-70
2023/01/06 12:03:03;;;;;;;3.33;0.60;;;;;;;;;;6260498;22;20174;-70
2023/01/06 12:05:35;;;;;;;3.20;0.70;;;;;;;;;;6250212;22;20025;-71
2023/01/06 12:08:14;;;;;;;6.03;1.15;;;;;;;;;;6245617;22;20095;-70
2023/01/06 12:10:47;;;;;;;2.65;0.60;;;;;;;;;;6262072;22;20034;-70
2023/01/06 12:13:27;;;;;;;3.05;0.47;;;;;;;;;;6213628;22;20023;-69
2023/01/06 12:16:08;;;;;;;1.95;0.50;;;;;;;;;;6289022;22;20019;-70
2023/01/06 12:18:38;;;;;;;4.97;0.95;;;;;;;;;;6258684;22;20098;-71
2023/01/06 12:21:31;;;;;;;2.17;0.60;;;;;;;;;;6276584;22;20054;-70
2023/01/06 12:24:00;;;;;;;3.53;0.68;;;;;;;;;;6186234;22;20032;-70
2023/01/06 12:26:30;;;;;;;3.08;0.52;;;;;;;;;;6298871;22;20441;-71
2023/01/06 12:29:04;;;;;;;6.90;0.70;;;;;;;;;;6286897;22;20031;-71
2023/01/06 12:31:43;;;;;;;5.75;0.77;;;;;;;;;;6305141;22;20022;-71
2023/01/06 12:34:19;;;;;;;7.43;0.70;;;;;;;;;;6228777;22;20019;-70
2023/01/06 12:36:50;;;;;;;1.55;0.60;;;;;;;;;;6274461;22;20023;-70
2023/01/06 12:42:05;;;;;;;4.50;0.77;;;;;;;;;;6241306;22;20031;-71
2023/01/06 12:44:38;;;;;;;5.07;1.08;;;;;;;;;;6167633;22;20448;-70
2023/01/06 12:47:16;;;;;;;3.47;0.65;;;;;;;;;;6248577;22;20027;-70
2023/01/06 12:50:01;;;;;;;5.13;0.88;;;;;;;;;;6255823;22;20048;-71
2023/01/06 12:52:46;;;;;;;3.97;0.60;;;;;;;;;;6253615;22;20026;-70
2023/01/06 12:58:29;;;;;;;5.80;0.68;;;;;;;;;;6311488;22;20038;-71
2023/01/06 13:01:15;;;;;;;3.85;0.77;;;;;;;;;;6270673;22;20019;-70
2023/01/06 13:04:10;;;;;;;3.05;0.70;;;;;;;;;;6271522;22;20027;-70
2023/01/06 13:06:50;;;;;;;2.33;0.75;;;;;;;;;;6233244;22;20026;-70
2023/01/06 13:09:43;;;;;;;11.45;0.80;;;;;;;;;;6264046;22;20015;-70
2023/01/06 13:15:34;;;;;;;3.70;0.77;;;;;;;;;;6201876;22;20019;-71
2023/01/06 13:18:10;;;;;;;1.75;0.52;;;;;;;;;;6309794;22;20053;-71
2023/01/06 13:20:49;;;;;;;5.45;0.68;;;;;;;;;;6225842;22;20023;-71
2023/01/06 13:23:29;;;;;;;4.18;0.68;;;;;;;;;;6238817;22;20026;-70
2023/01/06 13:26:10;;;;;;;3.90;0.73;;;;;;;;;;6307061;22;20023;-71
2023/01/06 13:28:54;;;;;;;3.15;0.80;;;;;;;;;;6260750;22;20097;-70
2023/01/06 13:31:39;;;;;;;1.95;0.63;;;;;;;;;;6285913;22;20023;-71
2023/01/06 13:34:17;;;;;;;4.07;0.65;;;;;;;;;;6261236;22;20029;-71
2023/01/06 13:36:57;;;;;;;2.58;0.55;;;;;;;;;;6238682;22;20019;-71
2023/01/06 13:42:31;;;;;;;3.92;0.75;;;;;;;;;;6265610;22;20048;-71
2023/01/06 13:45:01;;;;;;;3.72;0.65;;;;;;;;;;6156409;22;20029;-70
2023/01/06 13:50:39;;;;;;;1.35;0.70;;;;;;;;;;6311409;22;20026;-71
2023/01/06 13:53:06;;;;;;;2.53;0.70;;;;;;;;;;6242488;22;20029;-71
2023/01/06 13:55:37;;;;;;;1.30;0.70;;;;;;;;;;6264572;22;20094;-71
2023/01/06 13:58:27;;;;;;;1.40;0.57;;;;;;;;;;6279061;22;20031;-71
2023/01/06 14:01:17;;;;;;;2.10;0.50;;;;;;;;;;6275096;22;20026;-71
2023/01/06 14:03:45;;;;;;;2.25;0.57;;;;;;;;;;6195235;22;20030;-69
2023/01/06 14:06:12;;;;;;;1.63;0.70;;;;;;;;;;6268948;22;20023;-71
2023/01/06 14:08:48;;;;;;;3.28;0.70;;;;;;;;;;6231974;22;20028;-72
2023/01/06 14:11:21;;;;;;;3.88;0.70;;;;;;;;;;6232923;22;20055;-71
2023/01/06 14:13:53;;;;;;;1.95;0.63;;;;;;;;;;6188421;22;20039;-69
2023/01/06 14:16:37;;;;;;;4.72;0.70;;;;;;;;;;6187234;22;20023;-72
2023/01/06 14:19:05;;;;;;;3.67;0.57;;;;;;;;;;6315834;22;20027;-70
2023/01/06 14:21:35;;;;;;;1.23;0.75;;;;;;;;;;6308890;22;20018;-70
2023/01/06 14:24:03;;;;;;;3.65;0.77;;;;;;;;;;6310546;22;20022;-71
2023/01/06 14:26:59;;;;;;;3.35;0.70;;;;;;;;;;6313650;22;20034;-70
2023/01/06 14:29:45;;;;;;;4.85;0.95;;;;;;;;;;6278669;22;20027;-73
2023/01/06 14:32:31;;;;;;;1.60;0.70;;;;;;;;;;6244508;22;20027;-72
2023/01/06 14:34:59;;;;;;;1.95;0.50;;;;;;;;;;6239243;22;20019;-73
2023/01/06 14:37:34;;;;;;;1.67;0.40;;;;;;;;;;6284031;22;20083;-72
2023/01/06 14:40:02;;;;;;;3.00;0.82;;;;;;;;;;6288381;22;20268;-71
2023/01/06 14:42:33;;;;;;;1.13;0.55;;;;;;;;;;6257776;22;20037;-69
2023/01/06 14:45:00;;;;;;;;;;;;;;;;;;6198140;22;20018;-71
2023/01/06 14:47:33;;;;;;;6.75;0.90;;;;;;;;;;6286086;22;19914;-71
2023/01/06 14:50:02;;;;;;;1.13;0.50;;;;;;;;;;6302922;22;20019;-71
2023/01/06 14:52:28;;;;;;;;;;;;;;;;;;6235519;22;20024;-71
2023/01/06 14:54:55;;;;;;;1.45;0.60;;;;;;;;;;6210070;22;19941;-72
2023/01/06 14:57:34;;;;;;;3.85;0.90;;;;;;;;;;6315735;22;20023;-72
2023/01/06 15:00:13;;;;;;;4.47;0.60;;;;;;;;;;6303074;22;20057;-69
2023/01/06 15:02:49;;;;;;;1.08;0.60;;;;;;;;;;6274538;22;20030;-72
2023/01/06 15:05:23;;;;;;;1.48;0.65;;;;;;;;;;6241202;22;20096;-71
2023/01/06 15:08:00;;;;;;;1.95;0.75;;;;;;;;;;6263598;22;21521;-72
2023/01/06 15:10:31;;;;;;;2.10;0.60;;;;;;;;;;6277683;22;20029;-71
2023/01/06 15:23:35;;;;;;;2.95;0.82;;;;;;;;;;4985443;28;20998;-72
2023/01/06 15:26:07;;;;;;;4.20;1.00;;;;;;;;;;4864543;28;20060;-72
2023/01/06 15:28:37;;;;;;;2.42;0.80;;;;;;;;;;4893504;28;20051;-74
2023/01/06 15:31:04;;;;;;;4.35;1.17;;;;;;;;;;4903938;28;22696;-73
2023/01/06 15:33:42;;;;;;;2.83;1.00;;;;;;;;;;4933516;28;20138;-73
2023/01/06 16:07:33;;;;;;;1.83;0.60;;;;;;;;;;6125638;22;1654848;-70
2023/01/06 16:10:09;;;;;;;3.10;0.90;;;;;;;;;;6114477;23;20061;-70
2023/01/06 16:12:40;;;;;;;2.78;1.00;;;;;;;;;;6102337;23;20068;-72
2023/01/06 16:15:19;;;;;;;;;;;;;;;;;;6085110;23;20029;-72
2023/01/06 16:17:53;;;;;;;5.10;1.60;;;;;;;;;;6097441;23;19924;-72
2023/01/06 16:27:03;;;;;;;3.42;0.95;;;;;;;;;;6019763;23;20034;-72
2023/01/06 16:30:18;;;;;;;3.28;1.08;;;;;;;;;;6121864;23;20076;-73
2023/01/06 16:32:59;;;;;;;5.60;1.50;;;;;;;;;;6070723;23;20072;-73
2023/01/06 16:43:04;;;;;;;4.78;1.30;;;;;;;;;;6082703;23;20045;-72
2023/01/06 16:45:56;;;;;;;2.78;1.40;;;;;;;;;;6044454;23;20033;-73
2023/01/06 16:48:53;;;;;;;;;;;;;;;;;;;;;
2023/01/06 16:51:43;;;;;;;3.67;1.38;;;;;;;;;;6124244;23;20037;-72
2023/01/06 16:58:12;;;;;;;2.58;1.10;;;;;;;;;;6047321;23;20052;-72
2023/01/06 17:05:00;;;;;;;4.60;1.42;;;;;;;;;;6047314;23;20214;-72
2023/01/06 17:07:30;;;;;;;;;;;;;;;;;;6046914;23;20036;-73
2023/01/06 17:16:11;;;;;;;3.35;1.50;;;;;;;;;;6065086;23;20100;-73
2023/01/06 17:18:45;;;;;;;3.58;1.35;;;;;;;;;;6098502;23;20022;-72
2023/01/06 17:24:16;;;;;;;3.00;1.40;;;;;;;;;;6061921;23;20037;-72
2023/01/06 17:26:51;;;;;;;3.90;1.60;;;;;;;;;;6092332;23;20183;-72
2023/01/06 17:29:51;;;;;;;3.03;1.35;;;;;;;;;;6083178;23;20025;-72
2023/01/06 17:32:46;;;;;;;3.47;1.40;;;;;;;;;;6106506;23;20021;-72
2023/01/06 17:35:44;;;;;;;4.20;1.40;;;;;;;;;;6088069;23;20026;-72
2023/01/06 17:38:16;;;;;;;3.75;1.75;;;;;;;;;;6105174;23;20061;-72
2023/01/06 17:40:43;;;;;;;3.92;1.58;;;;;;;;;;6095492;23;20052;-72
2023/01/06 17:43:17;;;;;;;4.00;1.60;;;;;;;;;;6109533;23;20026;-73
2023/01/06 17:45:53;;;;;;;6.03;1.60;;;;;;;;;;6057645;23;20112;-72
2023/01/06 17:48:36;;;;;;;5.85;1.80;;;;;;;;;;6004352;23;20027;-72